• Join FlightAware (Why Join?)
  • Login
  • US Flag 
02:11PM EDT


 

Airport Tracker/Info


-or-


 

Live Flight TrackerFlight Track Log ✈ GJS3707 ✈ 25-May-2013 ✈ KDTW - KORD

Flight Track Log - Related Links

Times and Time Zones

All times are in EDT time to prevent confusion due to time zone crossing. See the GJS3707 flight status page for this flight to view local times or setup timezone preferences in your user account.

Time Position Orientation Groundspeed Altitude Reporting Facility
EDT Latitude Longitude Course Direction KTS MPH feet Rate Location/Type
08:14AM 42.2017 -83.3583 285° West 158 182 1,300  Level Cleveland Center
08:15AM 42.1625 -83.4181 229° Southwest 235 270 3,200 1,680 Climbing Cleveland Center
08:16AM 42.1128 -83.4942 229° Southwest 271 312 5,000 1,920 Climbing Cleveland Center
08:17AM 42.1375 -83.5878 290° West 251 289 7,300 2,520 Climbing Cleveland Center
08:18AM 42.2965 -83.7125 283° West  Level FlightAware Approximate
08:19AM 42.3145 -83.8060 285° West  Level FlightAware Approximate
08:19AM 42.1867 -83.6911 303° West 250 288 11,600  Level Cleveland Center
08:20AM 42.2283 -83.7744 304° West 261 300 13,700 2,700 Climbing Cleveland Center
08:21AM 42.2697 -83.8608 303° West 266 306 17,100 2,700 Climbing Cleveland Center
08:22AM 42.3089 -83.9469 302° West 266 306 19,100 2,100 Climbing Cleveland Center
08:23AM 42.3500 -84.0364 302° West 272 313 21,300 1,920 Climbing Cleveland Center
08:24AM 42.3931 -84.1258 303° West 279 321 23,000 1,200 Climbing Cleveland Center
08:25AM 42.4256 -84.2233 294° West 284 327 23,800 1,380 Climbing Cleveland Center
08:26AM 42.4300 -84.3417 273° West 302 348 25,800 1,980 Climbing Cleveland Center
08:27AM 42.4322 -84.4631 271° West 313 360 27,800 960 Climbing Cleveland Center
08:28AM 42.4383 -84.6147 273° West 317 365 28,000 60 Climbing Chicago Center
08:29AM 42.4406 -84.7342 271° West 317 365 28,000  Level Chicago Center
08:30AM 42.4439 -84.8550 272° West 320 368 28,000  Level Chicago Center
08:31AM 42.4461 -84.9778 271° West 325 374 28,000  Level Chicago Center
08:32AM 42.4494 -85.0986 272° West 323 372 28,000  Level Chicago Center
08:33AM 42.4500 -85.2239 270° West 328 377 28,000  Level Chicago Center
08:34AM 42.4525 -85.3528 272° West 341 392 28,000  Level Chicago Center
08:35AM 42.4533 -85.4892 271° West 359 413 28,000 -780 Level Chicago Center
08:36AM 42.4547 -85.6278 271° West 366 421 26,500 -1,500 Descending Chicago Center
08:37AM 42.4553 -85.7753 270° West 387 445 25,000 -1,500 Descending Chicago Center
08:38AM 42.4556 -85.9239 270° West 392 451 23,500 -1,500 Descending Chicago Center
08:39AM 42.4497 -86.0700 267° West 389 448 22,000 -1,680 Descending Chicago Center
08:40AM 42.4436 -86.2433 267° West 382 440 20,200 -1,680 Descending Chicago Center
08:41AM 42.4381 -86.3825 267° West 372 428 18,700 -1,320 Descending Chicago Center
08:42AM 42.4319 -86.5172 267° West 362 417 17,600 -1,320 Descending Chicago Center
08:43AM 42.4275 -86.6508 267° West 355 409 16,100 -1,500 Descending Chicago Center
08:44AM 42.4228 -86.7842 267° West 353 406 14,600 -1,500 Descending Chicago Center
08:45AM 42.4175 -86.9125 267° West 345 397 13,100 -1,500 Descending Chicago Center
08:46AM 42.4128 -87.0392 267° West 340 391 11,600 -1,320 Descending Chicago Center
08:47AM 42.4058 -87.1594 266° West 326 375 10,500 -1,140 Descending Chicago Center
08:48AM 42.4008 -87.2608 266° West 276 318 9,300 -780 Descending Chicago Center
08:49AM 42.3772 -87.3547 251° West 269 310 9,000 -1,020 Descending Chicago Center
08:50AM 42.3292 -87.4622 239° Southwest 278 320 7,300 -1,020 Descending Chicago Center
08:51AM 42.2956 -87.5444 241° Southwest 279 321 7,000 -180 Descending Chicago Center
08:52AM 42.2464 -87.6197 229° Southwest 274 315 7,000 -540 Level Chicago Center
08:53AM 42.1892 -87.6861 221° Southwest 273 314 6,000 -1,380 Descending Chicago Center
08:54AM 42.1319 -87.7486 219° Southwest 266 306 4,300 -1,680 Descending Chicago Center